Time;durP1;ratioP1;P1;durP2;ratioP2;P2;SDS_P1;SDS_P2;PMS_P1;PMS_P2;Temp;Humidity;BMP_temperature;BMP_pressure;BME280_temperature;BME280_humidity;BME280_pressure;Samples;Min_cycle;Max_cycle;Signal;HPM_P1;HPM_P2
2023/03/13 10:11:27;;;;;;;11.03;10.73;;;19.30;99.90;;;;;;5128303;27;20521;-75
2023/03/13 10:14:00;;;;;;;10.63;10.17;;;21.60;94.70;;;;;;5108382;28;20453;-75
2023/03/13 10:16:31;;;;;;;10.90;10.50;;;21.00;95.00;;;;;;5111082;28;20450;-77
2023/03/13 10:19:11;;;;;;;10.90;10.40;;;21.60;94.60;;;;;;5111319;28;20438;-77
2023/03/13 10:21:40;;;;;;;11.77;11.37;;;22.60;93.80;;;;;;5113569;28;20453;-78
2023/03/13 10:24:16;;;;;;;12.30;11.60;;;23.40;91.90;;;;;;5120480;28;20461;-77
2023/03/13 10:26:44;;;;;;;11.77;11.07;;;23.90;90.40;;;;;;5117615;28;20449;-78
2023/03/13 10:29:21;;;;;;;11.73;11.33;;;24.10;88.30;;;;;;5113908;28;20477;-77
2023/03/13 10:31:55;;;;;;;12.63;12.23;;;23.90;87.20;;;;;;5109575;28;20460;-77
2023/03/13 10:34:22;;;;;;;10.50;10.10;;;23.30;87.00;;;;;;5107922;28;20978;-77
2023/03/13 10:36:54;;;;;;;11.40;11.00;;;22.50;90.30;;;;;;5107790;28;20457;-77
2023/03/13 10:39:22;;;;;;;12.83;12.27;;;23.10;89.60;;;;;;5107572;28;20437;-77
2023/03/13 10:41:56;;;;;;;11.43;10.93;;;22.90;88.80;;;;;;5107653;28;20814;-77
2023/03/13 10:44:29;;;;;;;11.77;11.37;;;22.20;90.20;;;;;;5107544;28;20457;-78
2023/03/13 10:47:00;;;;;;;12.53;11.77;;;22.00;90.80;;;;;;5107382;28;20456;-77
2023/03/13 10:49:27;;;;;;;11.30;10.90;;;21.90;91.00;;;;;;5107245;28;20524;-77
2023/03/13 10:51:56;;;;;;;11.43;10.93;;;21.70;90.90;;;;;;5107316;28;20464;-76
2023/03/13 10:54:25;;;;;;;12.83;12.33;;;21.50;91.30;;;;;;5107361;28;20452;-76
2023/03/13 10:57:07;;;;;;;11.70;11.10;;;21.20;92.60;;;;;;5107403;28;20556;-77
2023/03/13 10:59:42;;;;;;;11.27;10.87;;;21.40;92.10;;;;;;5107525;28;20433;-77
2023/03/13 11:02:23;;;;;;;12.40;11.90;;;21.00;92.30;;;;;;5107237;28;20806;-76
2023/03/13 11:04:52;;;;;;;12.10;11.60;;;21.20;92.60;;;;;;5107338;28;20542;-77
2023/03/13 11:07:25;;;;;;;12.03;11.63;;;21.60;92.00;;;;;;5105011;28;20477;-75
2023/03/13 11:09:59;;;;;;;12.27;11.57;;;22.10;91.20;;;;;;5086342;28;20993;-76
2023/03/13 11:12:27;;;;;;;11.80;11.20;;;21.90;91.40;;;;;;5072715;28;20533;-76
2023/03/13 11:14:58;;;;;;;11.87;11.40;;;21.90;91.50;;;;;;5073051;28;20451;-76
2023/03/13 11:17:33;;;;;;;11.93;11.40;;;22.20;91.50;;;;;;5072992;28;20447;-76
2023/03/13 11:20:21;;;;;;;11.63;10.70;;;22.60;90.60;;;;;;5073140;28;20450;-76
2023/03/13 11:22:55;;;;;;;12.33;11.90;;;22.20;90.50;;;;;;5073087;28;20446;-76
2023/03/13 11:25:28;;;;;;;12.50;11.90;;;22.30;90.50;;;;;;5072984;28;20451;-76
2023/03/13 11:28:09;;;;;;;11.10;10.67;;;22.30;90.30;;;;;;5072825;28;20451;-77
2023/03/13 11:30:49;;;;;;;12.03;11.63;;;22.80;90.10;;;;;;5072823;28;20858;-76
2023/03/13 11:33:28;;;;;;;12.90;12.10;;;24.20;87.30;;;;;;5072804;28;20938;-77
2023/03/13 11:36:02;;;;;;;13.60;12.93;;;25.60;81.10;;;;;;5072883;28;20559;-77
2023/03/13 11:38:35;;;;;;;13.20;12.60;;;26.10;79.20;;;;;;5072649;28;20447;-77
2023/03/13 11:41:09;;;;;;;12.20;11.80;;;24.90;74.90;;;;;;5072675;28;20454;-77
2023/03/13 11:43:57;;;;;;;12.73;12.23;;;26.80;74.80;;;;;;5072618;28;20450;-77
2023/03/13 11:46:38;;;;;;;12.27;11.80;;;26.90;73.30;;;;;;5072541;28;20473;-77
2023/03/13 11:49:18;;;;;;;12.77;12.20;;;27.70;71.10;;;;;;5072613;28;21055;-77
2023/03/13 11:51:56;;;;;;;12.10;11.70;;;27.00;72.10;;;;;;5072607;28;20447;-77
2023/03/13 11:54:50;;;;;;;13.23;12.63;;;26.90;71.30;;;;;;5072345;28;20451;-78
2023/03/13 11:57:28;;;;;;;13.60;13.10;;;27.00;71.20;;;;;;5072618;28;20443;-78
2023/03/13 12:00:14;;;;;;;13.07;12.57;;;27.10;70.50;;;;;;5072420;28;20784;-78
2023/03/13 12:02:48;;;;;;;13.17;12.50;;;27.80;68.80;;;;;;5072154;28;20938;-77
2023/03/13 12:05:18;;;;;;;12.40;12.00;;;26.40;71.30;;;;;;5072187;28;20450;-77
2023/03/13 12:07:50;;;;;;;13.30;12.73;;;25.70;73.80;;;;;;5072421;28;20479;-77
2023/03/13 12:10:22;;;;;;;12.60;12.20;;;26.00;73.40;;;;;;5071860;28;20506;-77
2023/03/13 12:12:56;;;;;;;14.00;13.40;;;25.70;73.30;;;;;;5072173;28;20455;-77
2023/03/13 12:15:26;;;;;;;14.03;13.30;;;25.80;73.40;;;;;;5071872;28;20457;-77
2023/03/13 12:17:59;;;;;;;13.27;12.67;;;25.90;73.40;;;;;;5071940;28;20463;-77
2023/03/13 12:20:32;;;;;;;12.17;11.67;;;25.80;74.00;;;;;;5071825;28;20458;-77
2023/03/13 12:23:11;;;;;;;12.97;12.57;;;25.70;72.70;;;;;;5070735;28;20967;-77
2023/03/13 12:25:45;;;;;;;13.03;12.63;;;25.60;73.40;;;;;;5071681;28;20443;-77
2023/03/13 12:28:23;;;;;;;12.70;12.13;;;25.90;72.10;;;;;;5071713;28;20454;-77
2023/03/13 12:30:58;;;;;;;13.37;12.83;;;25.70;71.30;;;;;;5071642;28;20514;-77
2023/03/13 12:33:28;;;;;;;11.63;11.13;;;25.80;71.30;;;;;;5071608;28;20451;-76
2023/03/13 12:36:02;;;;;;;12.30;11.80;;;25.50;71.40;;;;;;5071472;28;20455;-76
2023/03/13 12:38:36;;;;;;;11.90;11.40;;;25.50;72.20;;;;;;5071548;28;20453;-77
2023/03/13 12:41:12;;;;;;;11.90;11.30;;;25.90;71.20;;;;;;5071481;28;20448;-76
2023/03/13 12:43:42;;;;;;;12.27;11.77;;;25.40;71.10;;;;;;5071340;28;20958;-76
2023/03/13 12:46:27;;;;;;;13.20;12.40;;;25.80;71.50;;;;;;5071148;28;20451;-77
2023/03/13 12:49:08;;;;;;;12.10;11.60;;;25.70;70.20;;;;;;5071297;28;20446;-77
2023/03/13 12:51:47;;;;;;;12.53;12.10;;;25.90;70.30;;;;;;5071261;28;20490;-77
2023/03/13 12:54:28;;;;;;;11.60;11.20;;;25.90;69.90;;;;;;5071237;28;20451;-76
2023/03/13 12:57:13;;;;;;;12.20;11.43;;;25.70;69.60;;;;;;5071139;28;21017;-76
2023/03/13 12:59:41;;;;;;;12.70;12.30;;;25.90;69.00;;;;;;5071362;28;20455;-77
2023/03/13 13:02:18;;;;;;;12.13;11.63;;;26.00;68.60;;;;;;5070935;28;20455;-76
2023/03/13 13:04:46;;;;;;;11.60;11.20;;;25.50;68.30;;;;;;5070953;28;20454;-77
2023/03/13 13:07:23;;;;;;;12.00;11.50;;;25.60;68.40;;;;;;5070709;28;20455;-76
2023/03/13 13:10:15;;;;;;;11.53;11.10;;;25.00;69.40;;;;;;5070757;28;20490;-76
2023/03/13 13:12:43;;;;;;;10.80;10.40;;;25.00;69.80;;;;;;5070797;28;20493;-76
2023/03/13 13:15:17;;;;;;;11.80;11.40;;;25.10;69.10;;;;;;5070657;28;20454;-75
2023/03/13 13:18:03;;;;;;;10.97;10.50;;;25.00;67.40;;;;;;5070774;28;20822;-76
2023/03/13 13:20:43;;;;;;;11.00;10.50;;;24.90;69.10;;;;;;5070636;28;20455;-76
2023/03/13 13:23:32;;;;;;;12.50;12.10;;;25.00;68.20;;;;;;5070458;28;20459;-76
2023/03/13 13:26:47;;;;;;;11.80;11.20;;;25.30;68.50;;;;;;5070718;28;20521;-77
2023/03/13 13:29:57;;;;;;;11.50;11.00;;;25.60;67.10;;;;;;5070637;28;20461;-76
2023/03/13 13:32:42;;;;;;;12.93;12.40;;;25.50;66.80;;;;;;5070445;28;20458;-76
2023/03/13 13:35:28;;;;;;;12.23;11.73;;;24.70;68.10;;;;;;5070206;28;20443;-76
2023/03/13 13:38:21;;;;;;;12.00;11.00;;;24.20;69.60;;;;;;5070463;28;20454;-76
2023/03/13 13:40:59;;;;;;;10.70;10.30;;;23.80;70.30;;;;;;5070513;28;20962;-76
2023/03/13 13:43:30;;;;;;;11.60;11.20;;;23.30;71.70;;;;;;5070286;28;20814;-76
2023/03/13 13:46:01;;;;;;;11.50;11.10;;;22.90;72.60;;;;;;5070397;28;20439;-75
2023/03/13 13:48:31;;;;;;;10.87;10.43;;;22.90;73.00;;;;;;5070303;28;20451;-76
2023/03/13 13:51:24;;;;;;;10.90;10.50;;;22.80;73.30;;;;;;5070185;28;21000;-76
2023/03/13 13:53:58;;;;;;;10.63;10.33;;;22.70;73.50;;;;;;5070306;28;20447;-76
2023/03/13 13:56:45;;;;;;;11.63;11.03;;;22.70;73.90;;;;;;5070332;28;20477;-76
2023/03/13 13:59:30;;;;;;;10.20;9.80;;;22.90;73.90;;;;;;5070131;28;20974;-76
2023/03/13 14:02:19;;;;;;;10.37;10.07;;;23.10;74.00;;;;;;5070322;28;20443;-76
2023/03/13 14:04:53;;;;;;;12.20;11.70;;;23.10;74.00;;;;;;5076376;28;20451;-76
2023/03/13 14:07:27;;;;;;;10.20;9.90;;;23.20;73.60;;;;;;5076487;28;20451;-76
2023/03/13 14:10:06;;;;;;;11.37;10.50;;;23.40;73.40;;;;;;5071651;28;20485;-76
2023/03/13 14:12:34;;;;;;;12.70;11.17;;;23.20;73.80;;;;;;5071459;28;20450;-75
2023/03/13 14:15:16;;;;;;;11.43;11.00;;;22.90;75.00;;;;;;5071027;28;20459;-75
2023/03/13 14:17:45;;;;;;;10.80;10.30;;;22.90;75.00;;;;;;5070731;28;20451;-76
2023/03/13 14:20:26;;;;;;;11.00;10.60;;;23.10;75.20;;;;;;5070065;28;20447;-75
2023/03/13 14:22:56;;;;;;;9.80;9.47;;;23.20;74.90;;;;;;5069812;28;20483;-75
2023/03/13 14:25:24;;;;;;;11.90;10.93;;;23.20;74.50;;;;;;5069811;28;20447;-76
2023/03/13 14:27:52;;;;;;;10.70;10.20;;;23.10;75.00;;;;;;5069820;28;21000;-76
2023/03/13 14:30:21;;;;;;;11.27;10.47;;;22.80;75.60;;;;;;5070092;28;20478;-76
2023/03/13 14:32:48;;;;;;;11.80;11.20;;;22.70;76.00;;;;;;5070265;28;20451;-76
2023/03/13 14:35:19;;;;;;;11.93;11.40;;;23.00;76.40;;;;;;5069700;28;20454;-76
2023/03/13 14:37:48;;;;;;;10.60;10.20;;;23.00;75.30;;;;;;5070039;28;20545;-76
2023/03/13 14:40:25;;;;;;;10.60;10.10;;;23.10;74.40;;;;;;5069902;28;20455;-76
2023/03/13 14:42:54;;;;;;;11.13;10.73;;;23.00;75.50;;;;;;5070013;28;20497;-76
2023/03/13 14:45:24;;;;;;;11.63;11.03;;;22.90;74.80;;;;;;5069904;28;20450;-75
2023/03/13 14:47:52;;;;;;;11.27;10.87;;;22.90;74.80;;;;;;5073638;28;20957;-75
2023/03/13 14:50:22;;;;;;;11.17;10.63;;;22.90;75.00;;;;;;5073499;28;20483;-76
2023/03/13 14:52:51;;;;;;;12.33;11.30;;;22.80;75.50;;;;;;5073652;28;20442;-76
2023/03/13 14:55:32;;;;;;;11.20;10.80;;;22.80;76.00;;;;;;5073687;28;20455;-76
2023/03/13 14:58:02;;;;;;;10.97;10.57;;;22.70;75.20;;;;;;5073406;28;20501;-77
2023/03/13 15:00:33;;;;;;;10.97;10.67;;;22.60;74.90;;;;;;5073383;28;20800;-76
2023/03/13 15:03:20;;;;;;;11.20;10.70;;;22.60;75.70;;;;;;5073577;28;20447;-76
2023/03/13 15:05:48;;;;;;;11.20;10.67;;;22.70;75.90;;;;;;5073599;28;20449;-77
2023/03/13 15:08:16;;;;;;;12.00;11.30;;;22.70;76.30;;;;;;5073244;28;20467;-76
2023/03/13 15:10:46;;;;;;;11.27;10.87;;;22.70;76.10;;;;;;5073153;28;20989;-75
2023/03/13 15:13:17;;;;;;;10.50;10.03;;;22.50;76.10;;;;;;5073112;28;20455;-75
2023/03/13 15:15:44;;;;;;;10.43;9.80;;;22.60;76.50;;;;;;5073045;28;20451;-76
2023/03/13 15:18:18;;;;;;;10.70;10.30;;;22.70;76.50;;;;;;5072896;28;21348;-75
2023/03/13 15:20:48;;;;;;;11.23;10.83;;;22.70;76.70;;;;;;5072696;28;20452;-75
2023/03/13 15:23:15;;;;;;;11.00;10.60;;;22.50;77.10;;;;;;5072670;28;20451;-75
2023/03/13 15:25:42;;;;;;;11.00;10.60;;;22.40;77.30;;;;;;5072808;28;20458;-75
2023/03/13 15:28:15;;;;;;;11.80;11.03;;;22.30;78.30;;;;;;5072860;28;20534;-75
2023/03/13 15:30:42;;;;;;;11.10;10.70;;;22.30;79.00;;;;;;5072569;28;20578;-77
2023/03/13 15:33:13;;;;;;;12.20;11.70;;;22.40;79.10;;;;;;5072427;28;20458;-76
2023/03/13 15:35:40;;;;;;;11.87;10.97;;;22.40;78.90;;;;;;5072617;28;20455;-76
2023/03/13 15:38:12;;;;;;;10.50;10.20;;;22.50;78.70;;;;;;5072663;28;20873;-77
2023/03/13 15:40:39;;;;;;;11.30;10.70;;;22.50;78.50;;;;;;5072632;28;20447;-77
2023/03/13 15:43:05;;;;;;;12.30;11.80;;;22.40;78.50;;;;;;5072743;28;20883;-76
2023/03/13 15:45:34;;;;;;;11.23;10.83;;;22.30;78.80;;;;;;5072797;28;20508;-75
2023/03/13 15:48:00;;;;;;;11.47;10.77;;;22.10;78.70;;;;;;5072551;28;20451;-75
2023/03/13 15:50:29;;;;;;;10.87;10.37;;;22.00;79.30;;;;;;5072216;28;20459;-76
2023/03/13 15:52:56;;;;;;;10.87;10.37;;;22.00;79.50;;;;;;5072208;28;20483;-76
2023/03/13 15:55:25;;;;;;;10.43;10.03;;;22.10;79.70;;;;;;5072385;28;20450;-74
2023/03/13 15:57:52;;;;;;;10.83;10.43;;;22.20;79.60;;;;;;5072149;28;20968;-76
2023/03/13 16:00:22;;;;;;;11.23;10.43;;;22.20;79.70;;;;;;5072505;28;20462;-77
2023/03/13 16:02:50;;;;;;;11.47;10.87;;;22.20;80.10;;;;;;5072313;28;20470;-77
2023/03/13 16:05:17;;;;;;;11.63;11.13;;;22.20;80.10;;;;;;5072202;28;20447;-76
2023/03/13 16:07:44;;;;;;;10.47;10.00;;;22.10;80.60;;;;;;5071941;28;20479;-77
2023/03/13 16:10:16;;;;;;;11.70;10.97;;;22.10;80.90;;;;;;5056004;28;20495;-75
2023/03/13 16:12:43;;;;;;;10.07;9.70;;;22.10;81.30;;;;;;5052784;28;20510;-76
2023/03/13 16:15:10;;;;;;;10.30;9.90;;;22.10;81.40;;;;;;5051723;28;20440;-75
2023/03/13 16:17:37;;;;;;;10.60;10.00;;;22.00;81.60;;;;;;5047245;28;20556;-75
2023/03/13 16:20:14;;;;;;;10.80;10.27;;;22.00;81.80;;;;;;5049660;28;20464;-76
2023/03/13 16:22:41;;;;;;;10.13;9.73;;;22.00;82.00;;;;;;5050347;28;20448;-76
2023/03/13 16:25:09;;;;;;;11.00;10.50;;;22.00;82.00;;;;;;5051651;28;20452;-76
2023/03/13 16:27:35;;;;;;;10.73;10.33;;;21.90;82.30;;;;;;5051756;28;20523;-76
2023/03/13 16:30:03;;;;;;;10.80;10.40;;;21.80;82.50;;;;;;5051749;28;20460;-76
2023/03/13 16:32:29;;;;;;;11.83;11.33;;;21.70;83.60;;;;;;5051498;28;20530;-77
2023/03/13 16:34:56;;;;;;;11.40;10.80;;;21.50;83.80;;;;;;5051581;28;20452;-77
2023/03/13 16:37:24;;;;;;;10.80;10.40;;;21.40;84.30;;;;;;5051391;28;20448;-76
2023/03/13 16:39:50;;;;;;;10.77;10.40;;;21.30;84.70;;;;;;5051453;28;20460;-77
2023/03/13 16:42:17;;;;;;;10.70;10.03;;;21.10;85.20;;;;;;5051723;28;20452;-76
2023/03/13 16:44:44;;;;;;;10.50;10.07;;;21.00;85.90;;;;;;5051281;28;20509;-76
2023/03/13 16:47:21;;;;;;;10.90;10.37;;;20.90;86.60;;;;;;5051136;28;20448;-77
2023/03/13 16:49:48;;;;;;;9.97;9.57;;;20.90;86.70;;;;;;5051423;28;20555;-77
2023/03/13 16:52:15;;;;;;;11.63;11.03;;;20.80;87.10;;;;;;5051341;28;20901;-76
2023/03/13 16:54:44;;;;;;;12.00;11.40;;;20.80;87.50;;;;;;5051210;28;20989;-76
2023/03/13 16:57:12;;;;;;;11.00;10.30;;;20.70;87.90;;;;;;5051032;28;20506;-77
2023/03/13 16:59:39;;;;;;;11.03;10.63;;;20.60;88.00;;;;;;5051206;28;20448;-77
2023/03/13 17:02:13;;;;;;;11.47;10.97;;;20.60;88.60;;;;;;5051138;28;20547;-76
2023/03/13 17:04:40;;;;;;;11.93;11.33;;;20.50;89.10;;;;;;5050932;28;20460;-76
2023/03/13 17:07:14;;;;;;;11.07;10.40;;;20.40;89.50;;;;;;5050703;28;20455;-76
2023/03/13 17:09:41;;;;;;;10.37;9.83;;;20.30;90.10;;;;;;5050214;28;20882;-76
2023/03/13 17:12:09;;;;;;;11.40;10.70;;;20.30;90.30;;;;;;5050837;28;20897;-76
2023/03/13 17:14:36;;;;;;;12.03;10.90;;;20.20;91.00;;;;;;5050871;28;20456;-75
2023/03/13 17:17:03;;;;;;;12.37;11.43;;;20.10;91.80;;;;;;5050890;28;20448;-75
2023/03/13 17:19:31;;;;;;;13.03;12.40;;;19.90;92.70;;;;;;5050681;28;21005;-74
2023/03/13 17:21:57;;;;;;;12.27;11.47;;;19.90;93.40;;;;;;5050575;28;20452;-75
2023/03/13 17:24:24;;;;;;;11.10;10.40;;;19.80;93.90;;;;;;5050898;28;20452;-74
2023/03/13 17:26:51;;;;;;;13.60;12.60;;;19.60;94.50;;;;;;5050597;28;20452;-77
2023/03/13 17:29:19;;;;;;;13.37;12.50;;;19.50;95.10;;;;;;5050775;28;20475;-75
2023/03/13 17:31:45;;;;;;;11.53;10.93;;;19.40;95.70;;;;;;5050593;28;20491;-75
2023/03/13 17:34:14;;;;;;;13.60;12.00;;;19.30;96.10;;;;;;5050446;28;20479;-75
2023/03/13 17:36:41;;;;;;;12.77;11.93;;;19.20;96.50;;;;;;5050653;28;20846;-76
2023/03/13 17:39:11;;;;;;;13.90;13.00;;;19.20;96.80;;;;;;5050452;28;20456;-76
2023/03/13 17:41:38;;;;;;;12.63;11.63;;;19.10;97.20;;;;;;5050569;28;20521;-75
2023/03/13 17:44:06;;;;;;;11.13;10.33;;;19.00;97.60;;;;;;5050582;28;20452;-75
2023/03/13 17:46:39;;;;;;;11.23;10.40;;;18.90;98.00;;;;;;5050546;28;20451;-76
2023/03/13 17:49:06;;;;;;;13.67;12.57;;;18.90;98.40;;;;;;5050270;28;20444;-76
2023/03/13 17:51:34;;;;;;;11.57;10.80;;;18.80;98.70;;;;;;5050471;28;20491;-75
2023/03/13 17:54:02;;;;;;;12.07;11.47;;;18.70;98.80;;;;;;5050434;28;20463;-76
2023/03/13 17:56:30;;;;;;;11.50;10.90;;;18.70;99.20;;;;;;5050323;28;20460;-75
